Alpine, Utah
Current Conditions -  °F | °C
As of 9:35 PM on Tuesday 21 Oct 2014 (Local Time) from KPVU Reporting Station
Clear Clear  
Wind Chill: 54°   Ceiling: Unl
Heat Index: 54°   Visibility: 10mi
Dew Point: 30°   Wind: 13mph
Humidity: 41%   Direction: 320°NW
Pressure: 30.05"   Gusts: NA
Location:  40.45°N, 111.78°W
Report Text: KPVU 220335Z AUTO 32011KT 10SM CLR 12/M01 A3005 RMK AO1
Loading
Personal Weather Stations






























Interactive Weather Map
Tropical Storm Tracking
New forecast layout! Learn more

10-Day Weather Forecast

Advertisements
Track Severe Weather on mobile